sensor_id;sensor_type;location;lat;lon;timestamp;P1;durP1;ratioP1;P2;durP2;ratioP2
5608;SDS011;2826;51.354;9.588;2023-03-17T00:00:11;4.50;;;2.87;;
5608;SDS011;2826;51.354;9.588;2023-03-17T00:02:41;3.37;;;3.00;;
5608;SDS011;2826;51.354;9.588;2023-03-17T00:05:17;6.70;;;3.50;;
5608;SDS011;2826;51.354;9.588;2023-03-17T00:07:46;5.03;;;3.10;;
5608;SDS011;2826;51.354;9.588;2023-03-17T00:10:15;5.77;;;3.57;;
5608;SDS011;2826;51.354;9.588;2023-03-17T00:12:44;5.80;;;3.50;;
5608;SDS011;2826;51.354;9.588;2023-03-17T00:15:11;3.97;;;3.23;;
5608;SDS011;2826;51.354;9.588;2023-03-17T00:17:40;4.07;;;3.13;;
5608;SDS011;2826;51.354;9.588;2023-03-17T00:20:10;4.47;;;3.30;;
5608;SDS011;2826;51.354;9.588;2023-03-17T00:22:41;5.20;;;3.67;;
5608;SDS011;2826;51.354;9.588;2023-03-17T00:25:16;8.20;;;3.40;;
5608;SDS011;2826;51.354;9.588;2023-03-17T00:27:48;5.77;;;3.40;;
5608;SDS011;2826;51.354;9.588;2023-03-17T00:30:16;7.63;;;3.60;;
5608;SDS011;2826;51.354;9.588;2023-03-17T00:32:44;4.13;;;3.40;;
5608;SDS011;2826;51.354;9.588;2023-03-17T00:35:16;4.60;;;3.23;;
5608;SDS011;2826;51.354;9.588;2023-03-17T00:37:47;6.57;;;3.87;;
5608;SDS011;2826;51.354;9.588;2023-03-17T00:40:15;5.13;;;3.50;;
5608;SDS011;2826;51.354;9.588;2023-03-17T00:42:43;8.53;;;3.90;;
5608;SDS011;2826;51.354;9.588;2023-03-17T00:45:10;8.27;;;4.70;;
5608;SDS011;2826;51.354;9.588;2023-03-17T00:47:36;7.60;;;3.57;;
5608;SDS011;2826;51.354;9.588;2023-03-17T00:50:08;5.50;;;3.73;;
5608;SDS011;2826;51.354;9.588;2023-03-17T00:52:37;9.70;;;4.47;;
5608;SDS011;2826;51.354;9.588;2023-03-17T00:55:05;6.50;;;3.83;;
5608;SDS011;2826;51.354;9.588;2023-03-17T00:57:33;6.80;;;4.20;;
5608;SDS011;2826;51.354;9.588;2023-03-17T01:00:00;6.60;;;4.00;;
5608;SDS011;2826;51.354;9.588;2023-03-17T01:02:27;6.77;;;4.47;;
5608;SDS011;2826;51.354;9.588;2023-03-17T01:04:58;6.53;;;4.17;;
5608;SDS011;2826;51.354;9.588;2023-03-17T01:07:26;7.00;;;4.53;;
5608;SDS011;2826;51.354;9.588;2023-03-17T01:09:54;9.73;;;4.20;;
5608;SDS011;2826;51.354;9.588;2023-03-17T01:12:22;5.00;;;3.50;;
5608;SDS011;2826;51.354;9.588;2023-03-17T01:14:48;4.60;;;3.37;;
5608;SDS011;2826;51.354;9.588;2023-03-17T01:17:16;5.80;;;3.60;;
5608;SDS011;2826;51.354;9.588;2023-03-17T01:19:43;6.23;;;3.87;;
5608;SDS011;2826;51.354;9.588;2023-03-17T01:22:11;5.80;;;3.73;;
5608;SDS011;2826;51.354;9.588;2023-03-17T01:24:40;5.07;;;3.57;;
5608;SDS011;2826;51.354;9.588;2023-03-17T01:27:06;7.80;;;4.13;;
5608;SDS011;2826;51.354;9.588;2023-03-17T01:29:35;11.70;;;3.60;;
5608;SDS011;2826;51.354;9.588;2023-03-17T01:32:02;5.03;;;3.10;;
5608;SDS011;2826;51.354;9.588;2023-03-17T01:34:28;9.00;;;3.80;;
5608;SDS011;2826;51.354;9.588;2023-03-17T01:36:55;6.80;;;4.00;;
5608;SDS011;2826;51.354;9.588;2023-03-17T01:39:22;5.30;;;4.10;;
5608;SDS011;2826;51.354;9.588;2023-03-17T01:41:51;6.57;;;3.87;;
5608;SDS011;2826;51.354;9.588;2023-03-17T01:44:21;5.93;;;3.80;;
5608;SDS011;2826;51.354;9.588;2023-03-17T01:46:49;6.57;;;4.00;;
5608;SDS011;2826;51.354;9.588;2023-03-17T01:49:23;6.40;;;4.00;;
5608;SDS011;2826;51.354;9.588;2023-03-17T01:51:56;5.33;;;3.17;;
5608;SDS011;2826;51.354;9.588;2023-03-17T01:54:28;4.70;;;3.47;;
5608;SDS011;2826;51.354;9.588;2023-03-17T01:57:02;6.63;;;3.47;;
5608;SDS011;2826;51.354;9.588;2023-03-17T01:59:35;8.53;;;3.57;;
5608;SDS011;2826;51.354;9.588;2023-03-17T02:02:07;6.20;;;4.03;;
5608;SDS011;2826;51.354;9.588;2023-03-17T02:04:36;6.23;;;3.57;;
5608;SDS011;2826;51.354;9.588;2023-03-17T02:07:04;5.27;;;3.50;;
5608;SDS011;2826;51.354;9.588;2023-03-17T02:09:31;5.93;;;3.63;;
5608;SDS011;2826;51.354;9.588;2023-03-17T02:11:59;9.63;;;3.97;;
5608;SDS011;2826;51.354;9.588;2023-03-17T02:14:29;17.53;;;4.80;;
5608;SDS011;2826;51.354;9.588;2023-03-17T02:16:56;5.70;;;3.97;;
5608;SDS011;2826;51.354;9.588;2023-03-17T02:19:22;4.70;;;3.47;;
5608;SDS011;2826;51.354;9.588;2023-03-17T02:21:50;9.47;;;4.47;;
5608;SDS011;2826;51.354;9.588;2023-03-17T02:24:21;7.17;;;3.90;;
5608;SDS011;2826;51.354;9.588;2023-03-17T02:26:53;5.17;;;3.60;;
5608;SDS011;2826;51.354;9.588;2023-03-17T02:29:22;7.70;;;3.70;;
5608;SDS011;2826;51.354;9.588;2023-03-17T02:31:49;4.50;;;3.27;;
5608;SDS011;2826;51.354;9.588;2023-03-17T02:34:16;5.07;;;3.50;;
5608;SDS011;2826;51.354;9.588;2023-03-17T02:36:43;4.93;;;3.60;;
5608;SDS011;2826;51.354;9.588;2023-03-17T02:39:12;5.30;;;3.40;;
5608;SDS011;2826;51.354;9.588;2023-03-17T02:41:38;5.03;;;3.43;;
5608;SDS011;2826;51.354;9.588;2023-03-17T02:44:06;7.53;;;3.40;;
5608;SDS011;2826;51.354;9.588;2023-03-17T02:46:32;5.23;;;3.20;;
5608;SDS011;2826;51.354;9.588;2023-03-17T02:48:59;6.07;;;3.53;;
5608;SDS011;2826;51.354;9.588;2023-03-17T02:51:27;6.10;;;3.60;;
5608;SDS011;2826;51.354;9.588;2023-03-17T02:53:54;5.80;;;3.60;;
5608;SDS011;2826;51.354;9.588;2023-03-17T02:56:22;3.53;;;2.90;;
5608;SDS011;2826;51.354;9.588;2023-03-17T02:58:49;7.93;;;3.47;;
5608;SDS011;2826;51.354;9.588;2023-03-17T03:01:16;6.67;;;4.20;;
5608;SDS011;2826;51.354;9.588;2023-03-17T03:03:42;6.67;;;3.87;;
5608;SDS011;2826;51.354;9.588;2023-03-17T03:06:09;5.10;;;3.20;;
5608;SDS011;2826;51.354;9.588;2023-03-17T03:08:35;6.33;;;3.60;;
5608;SDS011;2826;51.354;9.588;2023-03-17T03:11:02;4.03;;;2.97;;
5608;SDS011;2826;51.354;9.588;2023-03-17T03:13:30;5.20;;;3.47;;
5608;SDS011;2826;51.354;9.588;2023-03-17T03:15:58;7.33;;;4.27;;
5608;SDS011;2826;51.354;9.588;2023-03-17T03:18:25;6.30;;;3.57;;
5608;SDS011;2826;51.354;9.588;2023-03-17T03:20:51;7.73;;;3.57;;
5608;SDS011;2826;51.354;9.588;2023-03-17T03:23:18;5.80;;;3.70;;
5608;SDS011;2826;51.354;9.588;2023-03-17T03:25:45;7.97;;;4.10;;
5608;SDS011;2826;51.354;9.588;2023-03-17T03:28:11;4.70;;;3.30;;
5608;SDS011;2826;51.354;9.588;2023-03-17T03:30:40;4.97;;;3.27;;
5608;SDS011;2826;51.354;9.588;2023-03-17T03:33:08;5.07;;;3.47;;
5608;SDS011;2826;51.354;9.588;2023-03-17T03:35:37;4.63;;;3.10;;
5608;SDS011;2826;51.354;9.588;2023-03-17T03:38:04;4.00;;;3.10;;
5608;SDS011;2826;51.354;9.588;2023-03-17T03:40:30;5.73;;;3.90;;
5608;SDS011;2826;51.354;9.588;2023-03-17T03:42:57;14.00;;;4.00;;
5608;SDS011;2826;51.354;9.588;2023-03-17T03:45:24;5.30;;;3.37;;
5608;SDS011;2826;51.354;9.588;2023-03-17T03:47:52;5.80;;;3.83;;
5608;SDS011;2826;51.354;9.588;2023-03-17T03:50:19;6.30;;;3.70;;
5608;SDS011;2826;51.354;9.588;2023-03-17T03:52:46;3.40;;;3.10;;
5608;SDS011;2826;51.354;9.588;2023-03-17T03:55:14;6.80;;;3.70;;
5608;SDS011;2826;51.354;9.588;2023-03-17T03:57:41;6.27;;;3.97;;
5608;SDS011;2826;51.354;9.588;2023-03-17T04:00:08;4.00;;;3.10;;
5608;SDS011;2826;51.354;9.588;2023-03-17T04:02:38;6.87;;;3.43;;
5608;SDS011;2826;51.354;9.588;2023-03-17T04:05:07;6.93;;;3.20;;
5608;SDS011;2826;51.354;9.588;2023-03-17T04:07:34;5.67;;;3.30;;
5608;SDS011;2826;51.354;9.588;2023-03-17T04:10:01;4.20;;;3.00;;
5608;SDS011;2826;51.354;9.588;2023-03-17T04:12:28;6.43;;;3.60;;
5608;SDS011;2826;51.354;9.588;2023-03-17T04:14:55;5.80;;;3.53;;
5608;SDS011;2826;51.354;9.588;2023-03-17T04:17:21;5.20;;;3.93;;
5608;SDS011;2826;51.354;9.588;2023-03-17T04:19:48;8.23;;;3.67;;
5608;SDS011;2826;51.354;9.588;2023-03-17T04:22:16;9.13;;;3.00;;
5608;SDS011;2826;51.354;9.588;2023-03-17T04:24:43;5.13;;;3.37;;
5608;SDS011;2826;51.354;9.588;2023-03-17T04:27:10;3.93;;;3.00;;
5608;SDS011;2826;51.354;9.588;2023-03-17T04:29:39;3.77;;;2.90;;
5608;SDS011;2826;51.354;9.588;2023-03-17T04:32:07;5.47;;;3.30;;
5608;SDS011;2826;51.354;9.588;2023-03-17T04:34:34;6.50;;;3.83;;
5608;SDS011;2826;51.354;9.588;2023-03-17T04:37:00;6.50;;;3.50;;
5608;SDS011;2826;51.354;9.588;2023-03-17T04:39:28;9.73;;;3.70;;
5608;SDS011;2826;51.354;9.588;2023-03-17T04:41:55;4.83;;;3.23;;
5608;SDS011;2826;51.354;9.588;2023-03-17T04:44:21;5.63;;;3.77;;
5608;SDS011;2826;51.354;9.588;2023-03-17T04:46:48;5.10;;;3.30;;
5608;SDS011;2826;51.354;9.588;2023-03-17T04:49:14;5.23;;;3.17;;
5608;SDS011;2826;51.354;9.588;2023-03-17T04:51:41;5.33;;;3.43;;
5608;SDS011;2826;51.354;9.588;2023-03-17T04:54:08;8.33;;;3.10;;
5608;SDS011;2826;51.354;9.588;2023-03-17T04:56:36;5.93;;;3.50;;
5608;SDS011;2826;51.354;9.588;2023-03-17T04:59:04;4.17;;;3.33;;
5608;SDS011;2826;51.354;9.588;2023-03-17T05:01:30;4.97;;;3.40;;
5608;SDS011;2826;51.354;9.588;2023-03-17T05:03:57;4.13;;;3.00;;
5608;SDS011;2826;51.354;9.588;2023-03-17T05:06:23;6.73;;;3.17;;
5608;SDS011;2826;51.354;9.588;2023-03-17T05:08:50;6.10;;;3.53;;
5608;SDS011;2826;51.354;9.588;2023-03-17T05:11:17;4.17;;;3.20;;
5608;SDS011;2826;51.354;9.588;2023-03-17T05:13:45;5.90;;;3.60;;
5608;SDS011;2826;51.354;9.588;2023-03-17T05:16:12;15.17;;;3.60;;
5608;SDS011;2826;51.354;9.588;2023-03-17T05:18:39;4.40;;;3.10;;
5608;SDS011;2826;51.354;9.588;2023-03-17T05:21:06;7.23;;;3.57;;
5608;SDS011;2826;51.354;9.588;2023-03-17T05:23:33;5.50;;;3.60;;
5608;SDS011;2826;51.354;9.588;2023-03-17T05:26:00;5.40;;;3.10;;
5608;SDS011;2826;51.354;9.588;2023-03-17T05:28:26;3.63;;;3.13;;
5608;SDS011;2826;51.354;9.588;2023-03-17T05:30:54;4.80;;;3.77;;
5608;SDS011;2826;51.354;9.588;2023-03-17T05:33:21;6.30;;;3.80;;
5608;SDS011;2826;51.354;9.588;2023-03-17T05:35:48;5.97;;;3.00;;
5608;SDS011;2826;51.354;9.588;2023-03-17T05:38:15;5.67;;;3.60;;
5608;SDS011;2826;51.354;9.588;2023-03-17T05:40:42;8.70;;;3.20;;
5608;SDS011;2826;51.354;9.588;2023-03-17T05:43:08;8.33;;;3.53;;
5608;SDS011;2826;51.354;9.588;2023-03-17T05:45:35;7.93;;;3.97;;
5608;SDS011;2826;51.354;9.588;2023-03-17T05:48:04;5.00;;;3.43;;
5608;SDS011;2826;51.354;9.588;2023-03-17T05:50:31;5.67;;;3.50;;
5608;SDS011;2826;51.354;9.588;2023-03-17T05:52:58;6.10;;;3.60;;
5608;SDS011;2826;51.354;9.588;2023-03-17T05:55:25;5.53;;;3.30;;
5608;SDS011;2826;51.354;9.588;2023-03-17T05:57:51;4.73;;;3.53;;
5608;SDS011;2826;51.354;9.588;2023-03-17T06:00:18;5.77;;;3.77;;
5608;SDS011;2826;51.354;9.588;2023-03-17T06:02:46;4.43;;;2.97;;
5608;SDS011;2826;51.354;9.588;2023-03-17T06:05:14;11.77;;;3.60;;
5608;SDS011;2826;51.354;9.588;2023-03-17T06:07:40;6.67;;;4.57;;
5608;SDS011;2826;51.354;9.588;2023-03-17T06:10:07;6.47;;;4.10;;
5608;SDS011;2826;51.354;9.588;2023-03-17T06:12:35;6.90;;;4.00;;
5608;SDS011;2826;51.354;9.588;2023-03-17T06:15:03;6.43;;;3.83;;
5608;SDS011;2826;51.354;9.588;2023-03-17T06:17:30;8.40;;;3.53;;
5608;SDS011;2826;51.354;9.588;2023-03-17T06:19:57;7.70;;;3.87;;
5608;SDS011;2826;51.354;9.588;2023-03-17T06:22:25;7.30;;;3.40;;
5608;SDS011;2826;51.354;9.588;2023-03-17T06:24:52;5.90;;;3.30;;
5608;SDS011;2826;51.354;9.588;2023-03-17T06:27:18;3.63;;;3.10;;
5608;SDS011;2826;51.354;9.588;2023-03-17T06:29:45;10.73;;;3.30;;
5608;SDS011;2826;51.354;9.588;2023-03-17T06:32:12;4.20;;;2.90;;
5608;SDS011;2826;51.354;9.588;2023-03-17T06:34:40;4.50;;;2.97;;
5608;SDS011;2826;51.354;9.588;2023-03-17T06:37:07;5.50;;;3.43;;
5608;SDS011;2826;51.354;9.588;2023-03-17T06:39:35;5.70;;;3.30;;
5608;SDS011;2826;51.354;9.588;2023-03-17T06:42:03;7.87;;;3.63;;
5608;SDS011;2826;51.354;9.588;2023-03-17T06:44:30;5.33;;;3.07;;
5608;SDS011;2826;51.354;9.588;2023-03-17T06:46:57;3.43;;;3.00;;
5608;SDS011;2826;51.354;9.588;2023-03-17T06:49:23;5.50;;;3.43;;
5608;SDS011;2826;51.354;9.588;2023-03-17T06:51:50;11.23;;;3.47;;
5608;SDS011;2826;51.354;9.588;2023-03-17T06:54:16;6.27;;;3.17;;
5608;SDS011;2826;51.354;9.588;2023-03-17T06:56:45;2.37;;;2.17;;
5608;SDS011;2826;51.354;9.588;2023-03-17T06:59:12;4.00;;;2.67;;
5608;SDS011;2826;51.354;9.588;2023-03-17T07:01:39;5.17;;;2.90;;
5608;SDS011;2826;51.354;9.588;2023-03-17T07:04:05;5.43;;;3.20;;
5608;SDS011;2826;51.354;9.588;2023-03-17T07:06:32;5.47;;;3.00;;
5608;SDS011;2826;51.354;9.588;2023-03-17T07:08:59;5.00;;;2.57;;
5608;SDS011;2826;51.354;9.588;2023-03-17T07:11:26;8.00;;;3.20;;
5608;SDS011;2826;51.354;9.588;2023-03-17T07:13:56;3.50;;;2.60;;
5608;SDS011;2826;51.354;9.588;2023-03-17T07:16:23;4.57;;;2.80;;
5608;SDS011;2826;51.354;9.588;2023-03-17T07:18:49;3.50;;;2.57;;
5608;SDS011;2826;51.354;9.588;2023-03-17T07:21:16;3.33;;;2.70;;
5608;SDS011;2826;51.354;9.588;2023-03-17T07:23:43;9.37;;;3.23;;
5608;SDS011;2826;51.354;9.588;2023-03-17T07:26:09;2.20;;;2.00;;
5608;SDS011;2826;51.354;9.588;2023-03-17T07:28:36;4.80;;;2.90;;
5608;SDS011;2826;51.354;9.588;2023-03-17T07:31:05;3.40;;;2.60;;
5608;SDS011;2826;51.354;9.588;2023-03-17T07:33:33;4.40;;;3.00;;
5608;SDS011;2826;51.354;9.588;2023-03-17T07:36:00;3.80;;;2.93;;
5608;SDS011;2826;51.354;9.588;2023-03-17T07:38:27;3.30;;;2.70;;
5608;SDS011;2826;51.354;9.588;2023-03-17T07:40:53;9.73;;;3.90;;
5608;SDS011;2826;51.354;9.588;2023-03-17T07:43:21;8.30;;;3.40;;
5608;SDS011;2826;51.354;9.588;2023-03-17T07:45:47;9.40;;;3.23;;
5608;SDS011;2826;51.354;9.588;2023-03-17T07:48:15;5.10;;;3.00;;
5608;SDS011;2826;51.354;9.588;2023-03-17T07:50:42;5.80;;;3.10;;
5608;SDS011;2826;51.354;9.588;2023-03-17T07:53:09;4.20;;;2.67;;
5608;SDS011;2826;51.354;9.588;2023-03-17T07:55:35;7.60;;;3.27;;
5608;SDS011;2826;51.354;9.588;2023-03-17T07:58:03;6.70;;;3.20;;
5608;SDS011;2826;51.354;9.588;2023-03-17T08:00:29;5.30;;;3.57;;
5608;SDS011;2826;51.354;9.588;2023-03-17T08:02:56;4.43;;;2.70;;
5608;SDS011;2826;51.354;9.588;2023-03-17T08:05:24;5.00;;;3.53;;
5608;SDS011;2826;51.354;9.588;2023-03-17T08:07:51;3.83;;;2.57;;
5608;SDS011;2826;51.354;9.588;2023-03-17T08:10:18;6.37;;;2.90;;
5608;SDS011;2826;51.354;9.588;2023-03-17T08:12:45;3.00;;;2.53;;
5608;SDS011;2826;51.354;9.588;2023-03-17T08:15:15;2.83;;;2.37;;
5608;SDS011;2826;51.354;9.588;2023-03-17T08:17:42;4.63;;;2.20;;
5608;SDS011;2826;51.354;9.588;2023-03-17T08:20:10;2.87;;;2.57;;
5608;SDS011;2826;51.354;9.588;2023-03-17T08:22:40;2.27;;;2.07;;
5608;SDS011;2826;51.354;9.588;2023-03-17T08:25:08;5.30;;;2.50;;
5608;SDS011;2826;51.354;9.588;2023-03-17T08:27:36;4.37;;;2.90;;
5608;SDS011;2826;51.354;9.588;2023-03-17T08:30:03;4.23;;;2.30;;
5608;SDS011;2826;51.354;9.588;2023-03-17T08:32:32;7.93;;;2.77;;
5608;SDS011;2826;51.354;9.588;2023-03-17T08:34:59;4.23;;;2.90;;
5608;SDS011;2826;51.354;9.588;2023-03-17T08:37:26;5.80;;;3.67;;
5608;SDS011;2826;51.354;9.588;2023-03-17T08:39:54;8.53;;;3.87;;
5608;SDS011;2826;51.354;9.588;2023-03-17T08:42:22;4.60;;;3.03;;
5608;SDS011;2826;51.354;9.588;2023-03-17T08:44:48;4.83;;;2.90;;
5608;SDS011;2826;51.354;9.588;2023-03-17T08:47:16;7.63;;;3.43;;
5608;SDS011;2826;51.354;9.588;2023-03-17T08:49:42;2.50;;;2.00;;
5608;SDS011;2826;51.354;9.588;2023-03-17T08:52:09;4.13;;;2.97;;
5608;SDS011;2826;51.354;9.588;2023-03-17T08:54:36;5.73;;;2.53;;
5608;SDS011;2826;51.354;9.588;2023-03-17T08:57:04;3.00;;;2.20;;
5608;SDS011;2826;51.354;9.588;2023-03-17T08:59:31;7.90;;;2.87;;
5608;SDS011;2826;51.354;9.588;2023-03-17T09:01:57;3.90;;;1.93;;
5608;SDS011;2826;51.354;9.588;2023-03-17T09:04:24;3.50;;;2.30;;
5608;SDS011;2826;51.354;9.588;2023-03-17T09:06:52;8.23;;;2.87;;
5608;SDS011;2826;51.354;9.588;2023-03-17T09:09:20;4.70;;;3.30;;
5608;SDS011;2826;51.354;9.588;2023-03-17T09:11:48;3.63;;;2.50;;
5608;SDS011;2826;51.354;9.588;2023-03-17T09:14:16;4.07;;;2.73;;
5608;SDS011;2826;51.354;9.588;2023-03-17T09:16:42;3.10;;;2.30;;
5608;SDS011;2826;51.354;9.588;2023-03-17T09:19:13;3.23;;;2.33;;
5608;SDS011;2826;51.354;9.588;2023-03-17T09:21:40;3.20;;;2.30;;
5608;SDS011;2826;51.354;9.588;2023-03-17T09:24:07;3.47;;;2.33;;
5608;SDS011;2826;51.354;9.588;2023-03-17T09:26:34;9.10;;;3.03;;
5608;SDS011;2826;51.354;9.588;2023-03-17T09:29:01;4.47;;;2.60;;
5608;SDS011;2826;51.354;9.588;2023-03-17T09:31:30;2.40;;;2.10;;
5608;SDS011;2826;51.354;9.588;2023-03-17T09:33:57;5.07;;;2.43;;
5608;SDS011;2826;51.354;9.588;2023-03-17T09:36:24;2.17;;;1.80;;
5608;SDS011;2826;51.354;9.588;2023-03-17T09:38:50;5.10;;;2.00;;
5608;SDS011;2826;51.354;9.588;2023-03-17T09:41:32;2.43;;;1.97;;
5608;SDS011;2826;51.354;9.588;2023-03-17T09:44:14;3.57;;;2.30;;
5608;SDS011;2826;51.354;9.588;2023-03-17T09:46:59;5.37;;;2.37;;
5608;SDS011;2826;51.354;9.588;2023-03-17T09:49:36;3.40;;;2.50;;
5608;SDS011;2826;51.354;9.588;2023-03-17T09:52:08;3.13;;;2.03;;
5608;SDS011;2826;51.354;9.588;2023-03-17T09:54:37;2.83;;;2.00;;
5608;SDS011;2826;51.354;9.588;2023-03-17T09:57:05;2.30;;;1.70;;
5608;SDS011;2826;51.354;9.588;2023-03-17T09:59:59;3.07;;;1.90;;
5608;SDS011;2826;51.354;9.588;2023-03-17T10:02:34;5.17;;;2.00;;
5608;SDS011;2826;51.354;9.588;2023-03-17T10:05:06;3.70;;;2.37;;
5608;SDS011;2826;51.354;9.588;2023-03-17T10:07:41;5.23;;;2.27;;
5608;SDS011;2826;51.354;9.588;2023-03-17T10:10:12;2.30;;;2.10;;
5608;SDS011;2826;51.354;9.588;2023-03-17T10:12:43;5.00;;;2.13;;
5608;SDS011;2826;51.354;9.588;2023-03-17T10:15:17;8.10;;;2.10;;
5608;SDS011;2826;51.354;9.588;2023-03-17T10:17:49;4.83;;;1.83;;
5608;SDS011;2826;51.354;9.588;2023-03-17T10:20:17;3.47;;;2.03;;
5608;SDS011;2826;51.354;9.588;2023-03-17T10:22:50;2.60;;;2.00;;
5608;SDS011;2826;51.354;9.588;2023-03-17T10:25:23;2.30;;;2.10;;
5608;SDS011;2826;51.354;9.588;2023-03-17T10:27:54;5.60;;;2.20;;
5608;SDS011;2826;51.354;9.588;2023-03-17T10:30:25;3.60;;;2.00;;
5608;SDS011;2826;51.354;9.588;2023-03-17T10:32:54;2.40;;;1.93;;
5608;SDS011;2826;51.354;9.588;2023-03-17T10:35:24;3.40;;;2.40;;
5608;SDS011;2826;51.354;9.588;2023-03-17T10:37:51;4.70;;;3.53;;
5608;SDS011;2826;51.354;9.588;2023-03-17T10:40:19;3.57;;;2.30;;
5608;SDS011;2826;51.354;9.588;2023-03-17T10:42:51;3.90;;;2.23;;
5608;SDS011;2826;51.354;9.588;2023-03-17T10:45:21;3.50;;;2.50;;
5608;SDS011;2826;51.354;9.588;2023-03-17T10:47:55;4.50;;;2.50;;
5608;SDS011;2826;51.354;9.588;2023-03-17T10:50:23;3.50;;;2.37;;
5608;SDS011;2826;51.354;9.588;2023-03-17T10:52:55;3.97;;;2.30;;
5608;SDS011;2826;51.354;9.588;2023-03-17T10:55:26;9.20;;;2.30;;
5608;SDS011;2826;51.354;9.588;2023-03-17T10:57:59;3.67;;;2.60;;
5608;SDS011;2826;51.354;9.588;2023-03-17T11:00:30;2.83;;;2.53;;
5608;SDS011;2826;51.354;9.588;2023-03-17T11:03:03;3.23;;;2.10;;
5608;SDS011;2826;51.354;9.588;2023-03-17T11:05:38;5.17;;;2.67;;
5608;SDS011;2826;51.354;9.588;2023-03-17T11:08:08;3.93;;;2.60;;
5608;SDS011;2826;51.354;9.588;2023-03-17T11:10:40;3.77;;;2.60;;
5608;SDS011;2826;51.354;9.588;2023-03-17T11:13:06;3.13;;;2.80;;
5608;SDS011;2826;51.354;9.588;2023-03-17T11:15:34;5.17;;;3.30;;
5608;SDS011;2826;51.354;9.588;2023-03-17T11:18:10;3.93;;;3.00;;
5608;SDS011;2826;51.354;9.588;2023-03-17T11:20:49;4.67;;;2.93;;
5608;SDS011;2826;51.354;9.588;2023-03-17T11:23:27;6.80;;;3.00;;
5608;SDS011;2826;51.354;9.588;2023-03-17T11:26:11;4.40;;;3.20;;
5608;SDS011;2826;51.354;9.588;2023-03-17T11:28:50;3.47;;;3.00;;
5608;SDS011;2826;51.354;9.588;2023-03-17T11:31:24;4.10;;;2.80;;
5608;SDS011;2826;51.354;9.588;2023-03-17T11:33:57;4.00;;;3.10;;
5608;SDS011;2826;51.354;9.588;2023-03-17T11:36:42;5.37;;;2.90;;
5608;SDS011;2826;51.354;9.588;2023-03-17T11:39:41;4.90;;;3.17;;
5608;SDS011;2826;51.354;9.588;2023-03-17T11:42:18;5.90;;;3.13;;
5608;SDS011;2826;51.354;9.588;2023-03-17T11:44:54;4.83;;;2.70;;
5608;SDS011;2826;51.354;9.588;2023-03-17T11:47:36;6.47;;;3.57;;
5608;SDS011;2826;51.354;9.588;2023-03-17T11:50:13;4.27;;;3.07;;
5608;SDS011;2826;51.354;9.588;2023-03-17T11:52:51;9.13;;;3.80;;
5608;SDS011;2826;51.354;9.588;2023-03-17T11:55:36;6.50;;;3.13;;
5608;SDS011;2826;51.354;9.588;2023-03-17T11:58:10;7.60;;;2.83;;
5608;SDS011;2826;51.354;9.588;2023-03-17T12:00:53;3.47;;;2.83;;
5608;SDS011;2826;51.354;9.588;2023-03-17T12:03:27;4.90;;;3.27;;
5608;SDS011;2826;51.354;9.588;2023-03-17T12:06:04;10.63;;;3.60;;
5608;SDS011;2826;51.354;9.588;2023-03-17T12:08:38;4.93;;;3.23;;
5608;SDS011;2826;51.354;9.588;2023-03-17T12:11:11;5.30;;;3.63;;
5608;SDS011;2826;51.354;9.588;2023-03-17T12:13:41;3.43;;;2.77;;
5608;SDS011;2826;51.354;9.588;2023-03-17T12:16:12;4.63;;;2.87;;
5608;SDS011;2826;51.354;9.588;2023-03-17T12:18:46;4.23;;;2.87;;
5608;SDS011;2826;51.354;9.588;2023-03-17T12:21:26;4.90;;;3.30;;
5608;SDS011;2826;51.354;9.588;2023-03-17T12:23:58;6.77;;;2.90;;
5608;SDS011;2826;51.354;9.588;2023-03-17T12:26:27;3.63;;;2.87;;
5608;SDS011;2826;51.354;9.588;2023-03-17T12:29:01;5.50;;;3.10;;
5608;SDS011;2826;51.354;9.588;2023-03-17T12:31:35;10.70;;;2.50;;
5608;SDS011;2826;51.354;9.588;2023-03-17T12:34:05;2.30;;;2.10;;
5608;SDS011;2826;51.354;9.588;2023-03-17T12:36:41;2.50;;;2.30;;
5608;SDS011;2826;51.354;9.588;2023-03-17T12:39:09;3.70;;;2.63;;
5608;SDS011;2826;51.354;9.588;2023-03-17T12:41:48;3.47;;;2.20;;
5608;SDS011;2826;51.354;9.588;2023-03-17T12:44:32;4.77;;;2.80;;
5608;SDS011;2826;51.354;9.588;2023-03-17T12:47:15;2.97;;;2.40;;
5608;SDS011;2826;51.354;9.588;2023-03-17T12:50:16;3.47;;;2.43;;
5608;SDS011;2826;51.354;9.588;2023-03-17T12:52:57;5.00;;;2.27;;
5608;SDS011;2826;51.354;9.588;2023-03-17T12:55:37;2.50;;;1.90;;
5608;SDS011;2826;51.354;9.588;2023-03-17T12:58:14;5.33;;;1.97;;
5608;SDS011;2826;51.354;9.588;2023-03-17T13:00:54;6.20;;;2.17;;
5608;SDS011;2826;51.354;9.588;2023-03-17T13:03:27;8.43;;;1.97;;
5608;SDS011;2826;51.354;9.588;2023-03-17T13:05:57;2.60;;;1.93;;
5608;SDS011;2826;51.354;9.588;2023-03-17T13:08:29;8.20;;;2.20;;
5608;SDS011;2826;51.354;9.588;2023-03-17T13:11:13;3.10;;;1.90;;
5608;SDS011;2826;51.354;9.588;2023-03-17T13:13:44;3.93;;;1.80;;
5608;SDS011;2826;51.354;9.588;2023-03-17T13:16:27;4.73;;;2.20;;
5608;SDS011;2826;51.354;9.588;2023-03-17T13:19:13;3.60;;;1.90;;
5608;SDS011;2826;51.354;9.588;2023-03-17T13:21:50;4.63;;;2.10;;
5608;SDS011;2826;51.354;9.588;2023-03-17T13:24:41;3.60;;;1.73;;
5608;SDS011;2826;51.354;9.588;2023-03-17T13:27:13;1.97;;;1.80;;
5608;SDS011;2826;51.354;9.588;2023-03-17T13:33:16;2.53;;;2.20;;
5608;SDS011;2826;51.354;9.588;2023-03-17T13:35:59;9.40;;;2.57;;
5608;SDS011;2826;51.354;9.588;2023-03-17T13:38:42;2.37;;;2.13;;
5608;SDS011;2826;51.354;9.588;2023-03-17T13:41:27;5.07;;;2.00;;
5608;SDS011;2826;51.354;9.588;2023-03-17T13:44:08;5.73;;;3.37;;
5608;SDS011;2826;51.354;9.588;2023-03-17T13:46:53;9.73;;;2.17;;
5608;SDS011;2826;51.354;9.588;2023-03-17T13:49:22;6.83;;;2.13;;
5608;SDS011;2826;51.354;9.588;2023-03-17T13:51:54;2.70;;;1.80;;
5608;SDS011;2826;51.354;9.588;2023-03-17T13:54:30;2.87;;;2.03;;
5608;SDS011;2826;51.354;9.588;2023-03-17T13:59:55;5.70;;;2.43;;
5608;SDS011;2826;51.354;9.588;2023-03-17T14:02:26;4.00;;;2.10;;
5608;SDS011;2826;51.354;9.588;2023-03-17T14:04:56;2.00;;;1.80;;
5608;SDS011;2826;51.354;9.588;2023-03-17T14:07:41;3.92;;;1.75;;
5608;SDS011;2826;51.354;9.588;2023-03-17T14:10:14;4.47;;;2.30;;
5608;SDS011;2826;51.354;9.588;2023-03-17T14:12:45;1.73;;;1.53;;
5608;SDS011;2826;51.354;9.588;2023-03-17T14:15:19;3.60;;;1.90;;
5608;SDS011;2826;51.354;9.588;2023-03-17T14:17:51;2.10;;;1.90;;
5608;SDS011;2826;51.354;9.588;2023-03-17T14:20:26;3.53;;;1.93;;
5608;SDS011;2826;51.354;9.588;2023-03-17T14:22:54;5.20;;;2.13;;
5608;SDS011;2826;51.354;9.588;2023-03-17T14:25:22;3.60;;;2.07;;
5608;SDS011;2826;51.354;9.588;2023-03-17T14:27:51;8.20;;;1.90;;
5608;SDS011;2826;51.354;9.588;2023-03-17T14:30:21;4.73;;;2.40;;
5608;SDS011;2826;51.354;9.588;2023-03-17T14:32:51;9.13;;;2.10;;
5608;SDS011;2826;51.354;9.588;2023-03-17T14:35:23;3.10;;;2.40;;
5608;SDS011;2826;51.354;9.588;2023-03-17T14:37:50;4.47;;;2.30;;
5608;SDS011;2826;51.354;9.588;2023-03-17T14:40:18;3.20;;;2.40;;
5608;SDS011;2826;51.354;9.588;2023-03-17T14:42:51;4.33;;;2.20;;
5608;SDS011;2826;51.354;9.588;2023-03-17T14:45:25;4.03;;;2.00;;
5608;SDS011;2826;51.354;9.588;2023-03-17T14:47:53;7.27;;;2.40;;
5608;SDS011;2826;51.354;9.588;2023-03-17T14:50:22;5.83;;;2.47;;
5608;SDS011;2826;51.354;9.588;2023-03-17T14:52:52;3.20;;;2.37;;
5608;SDS011;2826;51.354;9.588;2023-03-17T14:55:20;3.87;;;2.67;;
5608;SDS011;2826;51.354;9.588;2023-03-17T14:57:48;6.60;;;2.63;;
5608;SDS011;2826;51.354;9.588;2023-03-17T15:00:31;12.70;;;2.43;;
5608;SDS011;2826;51.354;9.588;2023-03-17T15:03:02;3.57;;;2.10;;
5608;SDS011;2826;51.354;9.588;2023-03-17T15:05:41;3.77;;;1.97;;
5608;SDS011;2826;51.354;9.588;2023-03-17T15:11:15;3.20;;;2.10;;
5608;SDS011;2826;51.354;9.588;2023-03-17T15:13:54;3.70;;;2.50;;
5608;SDS011;2826;51.354;9.588;2023-03-17T15:16:32;4.57;;;2.30;;
5608;SDS011;2826;51.354;9.588;2023-03-17T15:19:02;8.40;;;2.23;;
5608;SDS011;2826;51.354;9.588;2023-03-17T15:21:33;4.90;;;2.20;;
5608;SDS011;2826;51.354;9.588;2023-03-17T15:24:05;3.30;;;2.33;;
5608;SDS011;2826;51.354;9.588;2023-03-17T15:26:44;5.67;;;1.83;;
5608;SDS011;2826;51.354;9.588;2023-03-17T15:29:10;5.00;;;2.00;;
5608;SDS011;2826;51.354;9.588;2023-03-17T15:31:38;7.57;;;4.40;;
5608;SDS011;2826;51.354;9.588;2023-03-17T15:34:06;14.70;;;2.23;;
5608;SDS011;2826;51.354;9.588;2023-03-17T15:36:34;4.40;;;2.00;;
5608;SDS011;2826;51.354;9.588;2023-03-17T15:39:01;10.73;;;2.00;;
5608;SDS011;2826;51.354;9.588;2023-03-17T15:41:28;4.57;;;2.63;;